sensor_id;sensor_type;location;lat;lon;timestamp;P1;durP1;ratioP1;P2;durP2;ratioP2
19551;SDS011;9921;47.186;9.778;2022-10-16T00:01:04;0.00;;;0.00;;
19551;SDS011;9921;47.186;9.778;2022-10-16T00:03:34;0.00;;;0.00;;
19551;SDS011;9921;47.186;9.778;2022-10-16T00:06:01;0.00;;;0.00;;
19551;SDS011;9921;47.186;9.778;2022-10-16T00:08:29;0.00;;;0.00;;
19551;SDS011;9921;47.186;9.778;2022-10-16T00:11:00;0.00;;;0.00;;
19551;SDS011;9921;47.186;9.778;2022-10-16T00:13:28;0.00;;;0.00;;
19551;SDS011;9921;47.186;9.778;2022-10-16T00:15:55;0.00;;;0.00;;
19551;SDS011;9921;47.186;9.778;2022-10-16T00:18:23;0.00;;;0.00;;
19551;SDS011;9921;47.186;9.778;2022-10-16T00:20:51;0.00;;;0.00;;
19551;SDS011;9921;47.186;9.778;2022-10-16T00:23:19;0.00;;;0.00;;
19551;SDS011;9921;47.186;9.778;2022-10-16T00:25:53;0.00;;;0.00;;
19551;SDS011;9921;47.186;9.778;2022-10-16T00:28:21;0.00;;;0.00;;
19551;SDS011;9921;47.186;9.778;2022-10-16T00:30:49;0.00;;;0.00;;
19551;SDS011;9921;47.186;9.778;2022-10-16T00:33:16;0.00;;;0.00;;
19551;SDS011;9921;47.186;9.778;2022-10-16T00:35:42;0.00;;;0.00;;
19551;SDS011;9921;47.186;9.778;2022-10-16T00:38:11;0.00;;;0.00;;
19551;SDS011;9921;47.186;9.778;2022-10-16T00:40:38;0.00;;;0.00;;
19551;SDS011;9921;47.186;9.778;2022-10-16T00:43:08;0.00;;;0.00;;
19551;SDS011;9921;47.186;9.778;2022-10-16T00:45:39;0.00;;;0.00;;
19551;SDS011;9921;47.186;9.778;2022-10-16T00:48:06;0.00;;;0.00;;
19551;SDS011;9921;47.186;9.778;2022-10-16T00:50:38;0.00;;;0.00;;
19551;SDS011;9921;47.186;9.778;2022-10-16T00:53:08;0.00;;;0.00;;
19551;SDS011;9921;47.186;9.778;2022-10-16T00:55:37;0.00;;;0.00;;
19551;SDS011;9921;47.186;9.778;2022-10-16T00:58:04;0.00;;;0.00;;
19551;SDS011;9921;47.186;9.778;2022-10-16T01:00:32;0.00;;;0.00;;
19551;SDS011;9921;47.186;9.778;2022-10-16T01:02:59;0.00;;;0.00;;
19551;SDS011;9921;47.186;9.778;2022-10-16T01:05:30;0.00;;;0.00;;
19551;SDS011;9921;47.186;9.778;2022-10-16T01:08:02;0.00;;;0.00;;
19551;SDS011;9921;47.186;9.778;2022-10-16T01:10:35;0.00;;;0.00;;
19551;SDS011;9921;47.186;9.778;2022-10-16T01:13:07;0.00;;;0.00;;
19551;SDS011;9921;47.186;9.778;2022-10-16T01:15:37;0.00;;;0.00;;
19551;SDS011;9921;47.186;9.778;2022-10-16T01:18:08;0.00;;;0.00;;
19551;SDS011;9921;47.186;9.778;2022-10-16T01:20:42;0.00;;;0.00;;
19551;SDS011;9921;47.186;9.778;2022-10-16T01:23:20;0.00;;;0.00;;
19551;SDS011;9921;47.186;9.778;2022-10-16T01:29:03;0.00;;;0.00;;
19551;SDS011;9921;47.186;9.778;2022-10-16T01:31:35;0.00;;;0.00;;
19551;SDS011;9921;47.186;9.778;2022-10-16T01:34:06;0.00;;;0.00;;
19551;SDS011;9921;47.186;9.778;2022-10-16T01:36:41;0.00;;;0.00;;
19551;SDS011;9921;47.186;9.778;2022-10-16T01:39:13;0.00;;;0.00;;
19551;SDS011;9921;47.186;9.778;2022-10-16T01:41:43;0.00;;;0.00;;
19551;SDS011;9921;47.186;9.778;2022-10-16T01:44:16;0.00;;;0.00;;
19551;SDS011;9921;47.186;9.778;2022-10-16T01:46:47;0.00;;;0.00;;
19551;SDS011;9921;47.186;9.778;2022-10-16T01:49:16;0.00;;;0.00;;
19551;SDS011;9921;47.186;9.778;2022-10-16T01:51:45;0.00;;;0.00;;
19551;SDS011;9921;47.186;9.778;2022-10-16T01:54:16;0.00;;;0.00;;
19551;SDS011;9921;47.186;9.778;2022-10-16T01:56:46;0.00;;;0.00;;
19551;SDS011;9921;47.186;9.778;2022-10-16T01:59:17;0.00;;;0.00;;
19551;SDS011;9921;47.186;9.778;2022-10-16T02:01:47;0.00;;;0.00;;
19551;SDS011;9921;47.186;9.778;2022-10-16T02:04:17;0.00;;;0.00;;
19551;SDS011;9921;47.186;9.778;2022-10-16T02:06:47;0.00;;;0.00;;
19551;SDS011;9921;47.186;9.778;2022-10-16T02:09:14;0.00;;;0.00;;
19551;SDS011;9921;47.186;9.778;2022-10-16T02:11:42;0.00;;;0.00;;
19551;SDS011;9921;47.186;9.778;2022-10-16T02:14:09;0.00;;;0.00;;
19551;SDS011;9921;47.186;9.778;2022-10-16T02:16:39;0.00;;;0.00;;
19551;SDS011;9921;47.186;9.778;2022-10-16T02:19:07;0.00;;;0.00;;
19551;SDS011;9921;47.186;9.778;2022-10-16T02:21:36;0.00;;;0.00;;
19551;SDS011;9921;47.186;9.778;2022-10-16T02:24:11;0.00;;;0.00;;
19551;SDS011;9921;47.186;9.778;2022-10-16T02:26:45;0.00;;;0.00;;
19551;SDS011;9921;47.186;9.778;2022-10-16T02:29:16;0.00;;;0.00;;
19551;SDS011;9921;47.186;9.778;2022-10-16T02:31:50;0.00;;;0.00;;
19551;SDS011;9921;47.186;9.778;2022-10-16T02:34:21;0.00;;;0.00;;
19551;SDS011;9921;47.186;9.778;2022-10-16T02:36:50;0.00;;;0.00;;
19551;SDS011;9921;47.186;9.778;2022-10-16T02:39:20;0.00;;;0.00;;
19551;SDS011;9921;47.186;9.778;2022-10-16T02:41:47;0.00;;;0.00;;
19551;SDS011;9921;47.186;9.778;2022-10-16T02:44:14;0.00;;;0.00;;
19551;SDS011;9921;47.186;9.778;2022-10-16T02:46:41;0.00;;;0.00;;
19551;SDS011;9921;47.186;9.778;2022-10-16T02:49:09;0.00;;;0.00;;
19551;SDS011;9921;47.186;9.778;2022-10-16T02:51:36;0.00;;;0.00;;
19551;SDS011;9921;47.186;9.778;2022-10-16T02:54:03;0.00;;;0.00;;
19551;SDS011;9921;47.186;9.778;2022-10-16T02:56:30;0.00;;;0.00;;
19551;SDS011;9921;47.186;9.778;2022-10-16T02:58:57;0.00;;;0.00;;
19551;SDS011;9921;47.186;9.778;2022-10-16T03:01:24;0.00;;;0.00;;
19551;SDS011;9921;47.186;9.778;2022-10-16T03:03:51;0.00;;;0.00;;
19551;SDS011;9921;47.186;9.778;2022-10-16T03:06:19;0.00;;;0.00;;
19551;SDS011;9921;47.186;9.778;2022-10-16T03:08:46;0.00;;;0.00;;
19551;SDS011;9921;47.186;9.778;2022-10-16T03:11:12;0.00;;;0.00;;
19551;SDS011;9921;47.186;9.778;2022-10-16T03:13:39;0.00;;;0.00;;
19551;SDS011;9921;47.186;9.778;2022-10-16T03:16:06;0.00;;;0.00;;
19551;SDS011;9921;47.186;9.778;2022-10-16T03:18:33;0.00;;;0.00;;
19551;SDS011;9921;47.186;9.778;2022-10-16T03:21:00;0.00;;;0.00;;
19551;SDS011;9921;47.186;9.778;2022-10-16T03:23:28;0.00;;;0.00;;
19551;SDS011;9921;47.186;9.778;2022-10-16T03:25:55;0.00;;;0.00;;
19551;SDS011;9921;47.186;9.778;2022-10-16T03:28:22;0.00;;;0.00;;
19551;SDS011;9921;47.186;9.778;2022-10-16T03:30:49;0.00;;;0.00;;
19551;SDS011;9921;47.186;9.778;2022-10-16T03:33:16;0.00;;;0.00;;
19551;SDS011;9921;47.186;9.778;2022-10-16T03:35:43;0.00;;;0.00;;
19551;SDS011;9921;47.186;9.778;2022-10-16T03:38:17;0.00;;;0.00;;
19551;SDS011;9921;47.186;9.778;2022-10-16T03:40:45;0.00;;;0.00;;
19551;SDS011;9921;47.186;9.778;2022-10-16T03:43:12;0.00;;;0.00;;
19551;SDS011;9921;47.186;9.778;2022-10-16T03:45:39;0.00;;;0.00;;
19551;SDS011;9921;47.186;9.778;2022-10-16T03:48:08;0.00;;;0.00;;
19551;SDS011;9921;47.186;9.778;2022-10-16T03:50:35;0.00;;;0.00;;
19551;SDS011;9921;47.186;9.778;2022-10-16T03:53:02;0.00;;;0.00;;
19551;SDS011;9921;47.186;9.778;2022-10-16T03:55:29;0.00;;;0.00;;
19551;SDS011;9921;47.186;9.778;2022-10-16T03:57:57;0.00;;;0.00;;
19551;SDS011;9921;47.186;9.778;2022-10-16T04:00:24;0.00;;;0.00;;
19551;SDS011;9921;47.186;9.778;2022-10-16T04:02:51;0.00;;;0.00;;
19551;SDS011;9921;47.186;9.778;2022-10-16T04:05:18;0.00;;;0.00;;
19551;SDS011;9921;47.186;9.778;2022-10-16T04:07:45;0.00;;;0.00;;
19551;SDS011;9921;47.186;9.778;2022-10-16T04:10:12;0.00;;;0.00;;
19551;SDS011;9921;47.186;9.778;2022-10-16T04:12:39;0.00;;;0.00;;
19551;SDS011;9921;47.186;9.778;2022-10-16T04:15:07;0.00;;;0.00;;
19551;SDS011;9921;47.186;9.778;2022-10-16T04:17:35;0.00;;;0.00;;
19551;SDS011;9921;47.186;9.778;2022-10-16T04:20:02;0.00;;;0.00;;
19551;SDS011;9921;47.186;9.778;2022-10-16T04:22:29;0.00;;;0.00;;
19551;SDS011;9921;47.186;9.778;2022-10-16T04:24:56;0.00;;;0.00;;
19551;SDS011;9921;47.186;9.778;2022-10-16T04:27:23;0.00;;;0.00;;
19551;SDS011;9921;47.186;9.778;2022-10-16T04:29:50;0.00;;;0.00;;
19551;SDS011;9921;47.186;9.778;2022-10-16T04:32:18;0.00;;;0.00;;
19551;SDS011;9921;47.186;9.778;2022-10-16T04:34:45;0.00;;;0.00;;
19551;SDS011;9921;47.186;9.778;2022-10-16T04:37:12;0.00;;;0.00;;
19551;SDS011;9921;47.186;9.778;2022-10-16T04:39:39;0.00;;;0.00;;
19551;SDS011;9921;47.186;9.778;2022-10-16T04:42:06;0.00;;;0.00;;
19551;SDS011;9921;47.186;9.778;2022-10-16T04:44:32;0.00;;;0.00;;
19551;SDS011;9921;47.186;9.778;2022-10-16T04:46:59;0.00;;;0.00;;
19551;SDS011;9921;47.186;9.778;2022-10-16T04:49:27;0.00;;;0.00;;
19551;SDS011;9921;47.186;9.778;2022-10-16T04:51:54;0.00;;;0.00;;
19551;SDS011;9921;47.186;9.778;2022-10-16T04:54:21;0.00;;;0.00;;
19551;SDS011;9921;47.186;9.778;2022-10-16T04:56:48;0.00;;;0.00;;
19551;SDS011;9921;47.186;9.778;2022-10-16T04:59:17;0.00;;;0.00;;
19551;SDS011;9921;47.186;9.778;2022-10-16T05:01:44;0.00;;;0.00;;
19551;SDS011;9921;47.186;9.778;2022-10-16T05:04:12;0.00;;;0.00;;
19551;SDS011;9921;47.186;9.778;2022-10-16T05:06:41;0.00;;;0.00;;
19551;SDS011;9921;47.186;9.778;2022-10-16T05:09:08;0.00;;;0.00;;
19551;SDS011;9921;47.186;9.778;2022-10-16T05:11:35;0.00;;;0.00;;
19551;SDS011;9921;47.186;9.778;2022-10-16T05:14:02;0.00;;;0.00;;
19551;SDS011;9921;47.186;9.778;2022-10-16T05:16:29;0.00;;;0.00;;
19551;SDS011;9921;47.186;9.778;2022-10-16T05:18:56;0.00;;;0.00;;
19551;SDS011;9921;47.186;9.778;2022-10-16T05:21:23;0.00;;;0.00;;
19551;SDS011;9921;47.186;9.778;2022-10-16T05:23:51;0.00;;;0.00;;
19551;SDS011;9921;47.186;9.778;2022-10-16T05:26:19;0.00;;;0.00;;
19551;SDS011;9921;47.186;9.778;2022-10-16T05:28:46;0.00;;;0.00;;
19551;SDS011;9921;47.186;9.778;2022-10-16T05:31:13;0.00;;;0.00;;
19551;SDS011;9921;47.186;9.778;2022-10-16T05:33:40;0.00;;;0.00;;
19551;SDS011;9921;47.186;9.778;2022-10-16T05:36:09;0.00;;;0.00;;
19551;SDS011;9921;47.186;9.778;2022-10-16T05:38:36;0.00;;;0.00;;
19551;SDS011;9921;47.186;9.778;2022-10-16T05:41:05;0.00;;;0.00;;
19551;SDS011;9921;47.186;9.778;2022-10-16T05:43:32;0.00;;;0.00;;
19551;SDS011;9921;47.186;9.778;2022-10-16T05:45:59;0.00;;;0.00;;
19551;SDS011;9921;47.186;9.778;2022-10-16T05:48:27;0.00;;;0.00;;
19551;SDS011;9921;47.186;9.778;2022-10-16T05:50:58;0.00;;;0.00;;
19551;SDS011;9921;47.186;9.778;2022-10-16T05:53:26;0.00;;;0.00;;
19551;SDS011;9921;47.186;9.778;2022-10-16T05:55:54;0.00;;;0.00;;
19551;SDS011;9921;47.186;9.778;2022-10-16T05:58:23;0.00;;;0.00;;
19551;SDS011;9921;47.186;9.778;2022-10-16T06:00:54;0.00;;;0.00;;
19551;SDS011;9921;47.186;9.778;2022-10-16T06:03:22;0.00;;;0.00;;
19551;SDS011;9921;47.186;9.778;2022-10-16T06:05:49;0.00;;;0.00;;
19551;SDS011;9921;47.186;9.778;2022-10-16T06:08:16;0.00;;;0.00;;
19551;SDS011;9921;47.186;9.778;2022-10-16T06:10:44;0.00;;;0.00;;
19551;SDS011;9921;47.186;9.778;2022-10-16T06:13:11;0.00;;;0.00;;
19551;SDS011;9921;47.186;9.778;2022-10-16T06:15:39;0.00;;;0.00;;
19551;SDS011;9921;47.186;9.778;2022-10-16T06:18:08;0.00;;;0.00;;
19551;SDS011;9921;47.186;9.778;2022-10-16T06:20:35;0.00;;;0.00;;
19551;SDS011;9921;47.186;9.778;2022-10-16T06:23:02;0.00;;;0.00;;
19551;SDS011;9921;47.186;9.778;2022-10-16T06:25:29;0.00;;;0.00;;
19551;SDS011;9921;47.186;9.778;2022-10-16T06:27:56;0.00;;;0.00;;
19551;SDS011;9921;47.186;9.778;2022-10-16T06:30:23;0.00;;;0.00;;
19551;SDS011;9921;47.186;9.778;2022-10-16T06:32:51;0.00;;;0.00;;
19551;SDS011;9921;47.186;9.778;2022-10-16T06:35:18;0.00;;;0.00;;
19551;SDS011;9921;47.186;9.778;2022-10-16T06:37:45;0.00;;;0.00;;
19551;SDS011;9921;47.186;9.778;2022-10-16T06:40:12;0.00;;;0.00;;
19551;SDS011;9921;47.186;9.778;2022-10-16T06:42:40;0.00;;;0.00;;
19551;SDS011;9921;47.186;9.778;2022-10-16T06:45:07;0.00;;;0.00;;
19551;SDS011;9921;47.186;9.778;2022-10-16T06:47:35;0.00;;;0.00;;
19551;SDS011;9921;47.186;9.778;2022-10-16T06:50:03;0.00;;;0.00;;
19551;SDS011;9921;47.186;9.778;2022-10-16T06:52:32;0.00;;;0.00;;
19551;SDS011;9921;47.186;9.778;2022-10-16T06:54:59;0.00;;;0.00;;
19551;SDS011;9921;47.186;9.778;2022-10-16T06:57:27;0.00;;;0.00;;
19551;SDS011;9921;47.186;9.778;2022-10-16T06:59:54;0.00;;;0.00;;
19551;SDS011;9921;47.186;9.778;2022-10-16T07:02:21;0.00;;;0.00;;
19551;SDS011;9921;47.186;9.778;2022-10-16T07:04:48;0.00;;;0.00;;
19551;SDS011;9921;47.186;9.778;2022-10-16T07:07:16;0.00;;;0.00;;
19551;SDS011;9921;47.186;9.778;2022-10-16T07:09:43;0.00;;;0.00;;
19551;SDS011;9921;47.186;9.778;2022-10-16T07:12:10;0.00;;;0.00;;
19551;SDS011;9921;47.186;9.778;2022-10-16T07:14:37;0.00;;;0.00;;
19551;SDS011;9921;47.186;9.778;2022-10-16T07:17:04;0.00;;;0.00;;
19551;SDS011;9921;47.186;9.778;2022-10-16T07:19:31;0.00;;;0.00;;
19551;SDS011;9921;47.186;9.778;2022-10-16T07:21:58;0.00;;;0.00;;
19551;SDS011;9921;47.186;9.778;2022-10-16T07:24:26;0.00;;;0.00;;
19551;SDS011;9921;47.186;9.778;2022-10-16T07:26:53;0.00;;;0.00;;
19551;SDS011;9921;47.186;9.778;2022-10-16T07:29:20;0.00;;;0.00;;
19551;SDS011;9921;47.186;9.778;2022-10-16T07:31:48;0.00;;;0.00;;
19551;SDS011;9921;47.186;9.778;2022-10-16T07:34:16;0.00;;;0.00;;
19551;SDS011;9921;47.186;9.778;2022-10-16T07:36:44;0.00;;;0.00;;
19551;SDS011;9921;47.186;9.778;2022-10-16T07:39:14;0.00;;;0.00;;
19551;SDS011;9921;47.186;9.778;2022-10-16T07:41:42;0.00;;;0.00;;
19551;SDS011;9921;47.186;9.778;2022-10-16T07:44:09;0.00;;;0.00;;
19551;SDS011;9921;47.186;9.778;2022-10-16T07:46:35;0.00;;;0.00;;
19551;SDS011;9921;47.186;9.778;2022-10-16T07:49:02;0.00;;;0.00;;
19551;SDS011;9921;47.186;9.778;2022-10-16T07:51:30;0.00;;;0.00;;
19551;SDS011;9921;47.186;9.778;2022-10-16T07:53:57;0.00;;;0.00;;
19551;SDS011;9921;47.186;9.778;2022-10-16T07:56:24;0.00;;;0.00;;
19551;SDS011;9921;47.186;9.778;2022-10-16T07:58:52;0.00;;;0.00;;
19551;SDS011;9921;47.186;9.778;2022-10-16T08:01:19;0.00;;;0.00;;
19551;SDS011;9921;47.186;9.778;2022-10-16T08:03:46;0.00;;;0.00;;
19551;SDS011;9921;47.186;9.778;2022-10-16T08:06:15;0.00;;;0.00;;
19551;SDS011;9921;47.186;9.778;2022-10-16T08:08:42;0.00;;;0.00;;
19551;SDS011;9921;47.186;9.778;2022-10-16T08:11:09;0.00;;;0.00;;
19551;SDS011;9921;47.186;9.778;2022-10-16T08:13:36;0.00;;;0.00;;
19551;SDS011;9921;47.186;9.778;2022-10-16T08:16:05;0.00;;;0.00;;
19551;SDS011;9921;47.186;9.778;2022-10-16T08:18:33;0.00;;;0.00;;
19551;SDS011;9921;47.186;9.778;2022-10-16T08:21:01;0.00;;;0.00;;
19551;SDS011;9921;47.186;9.778;2022-10-16T08:23:29;0.00;;;0.00;;
19551;SDS011;9921;47.186;9.778;2022-10-16T08:26:01;0.00;;;0.00;;
19551;SDS011;9921;47.186;9.778;2022-10-16T08:28:30;0.00;;;0.00;;
19551;SDS011;9921;47.186;9.778;2022-10-16T08:31:05;0.00;;;0.00;;
19551;SDS011;9921;47.186;9.778;2022-10-16T08:33:33;0.00;;;0.00;;
19551;SDS011;9921;47.186;9.778;2022-10-16T08:36:01;0.00;;;0.00;;
19551;SDS011;9921;47.186;9.778;2022-10-16T08:38:28;0.00;;;0.00;;
19551;SDS011;9921;47.186;9.778;2022-10-16T08:40:55;0.00;;;0.00;;
19551;SDS011;9921;47.186;9.778;2022-10-16T08:43:34;0.00;;;0.00;;
19551;SDS011;9921;47.186;9.778;2022-10-16T08:46:20;0.00;;;0.00;;
19551;SDS011;9921;47.186;9.778;2022-10-16T08:48:54;0.00;;;0.00;;
19551;SDS011;9921;47.186;9.778;2022-10-16T08:51:24;0.00;;;0.00;;
19551;SDS011;9921;47.186;9.778;2022-10-16T08:53:53;0.00;;;0.00;;
19551;SDS011;9921;47.186;9.778;2022-10-16T08:56:22;0.00;;;0.00;;
19551;SDS011;9921;47.186;9.778;2022-10-16T08:58:51;0.00;;;0.00;;
19551;SDS011;9921;47.186;9.778;2022-10-16T09:01:21;0.00;;;0.00;;
19551;SDS011;9921;47.186;9.778;2022-10-16T09:03:54;0.00;;;0.00;;
19551;SDS011;9921;47.186;9.778;2022-10-16T09:06:35;0.00;;;0.00;;
19551;SDS011;9921;47.186;9.778;2022-10-16T09:12:11;0.00;;;0.00;;
19551;SDS011;9921;47.186;9.778;2022-10-16T09:14:49;0.00;;;0.00;;
19551;SDS011;9921;47.186;9.778;2022-10-16T09:17:25;0.00;;;0.00;;
19551;SDS011;9921;47.186;9.778;2022-10-16T09:20:03;0.00;;;0.00;;
19551;SDS011;9921;47.186;9.778;2022-10-16T09:22:44;0.00;;;0.00;;
19551;SDS011;9921;47.186;9.778;2022-10-16T09:25:12;0.00;;;0.00;;
19551;SDS011;9921;47.186;9.778;2022-10-16T09:27:40;0.00;;;0.00;;
19551;SDS011;9921;47.186;9.778;2022-10-16T09:30:11;0.10;;;0.10;;
19551;SDS011;9921;47.186;9.778;2022-10-16T09:32:41;0.10;;;0.10;;
19551;SDS011;9921;47.186;9.778;2022-10-16T09:35:11;0.10;;;0.10;;
19551;SDS011;9921;47.186;9.778;2022-10-16T09:37:42;0.20;;;0.20;;
19551;SDS011;9921;47.186;9.778;2022-10-16T09:40:12;0.17;;;0.17;;
19551;SDS011;9921;47.186;9.778;2022-10-16T09:42:49;0.20;;;0.20;;
19551;SDS011;9921;47.186;9.778;2022-10-16T09:45:20;0.10;;;0.10;;
19551;SDS011;9921;47.186;9.778;2022-10-16T09:47:50;0.17;;;0.17;;
19551;SDS011;9921;47.186;9.778;2022-10-16T09:50:22;0.10;;;0.10;;
19551;SDS011;9921;47.186;9.778;2022-10-16T09:52:51;0.20;;;0.20;;
19551;SDS011;9921;47.186;9.778;2022-10-16T09:55:30;0.10;;;0.10;;
19551;SDS011;9921;47.186;9.778;2022-10-16T09:57:57;0.10;;;0.10;;
19551;SDS011;9921;47.186;9.778;2022-10-16T10:00:24;0.10;;;0.10;;
19551;SDS011;9921;47.186;9.778;2022-10-16T10:02:52;0.10;;;0.10;;
19551;SDS011;9921;47.186;9.778;2022-10-16T10:05:21;0.10;;;0.10;;
19551;SDS011;9921;47.186;9.778;2022-10-16T10:07:53;0.20;;;0.20;;
19551;SDS011;9921;47.186;9.778;2022-10-16T10:10:23;0.20;;;0.20;;
19551;SDS011;9921;47.186;9.778;2022-10-16T10:12:51;0.20;;;0.20;;
19551;SDS011;9921;47.186;9.778;2022-10-16T10:15:19;0.25;;;0.25;;
19551;SDS011;9921;47.186;9.778;2022-10-16T10:17:47;0.20;;;0.20;;
19551;SDS011;9921;47.186;9.778;2022-10-16T10:20:21;0.20;;;0.20;;
19551;SDS011;9921;47.186;9.778;2022-10-16T10:22:50;0.20;;;0.20;;
19551;SDS011;9921;47.186;9.778;2022-10-16T10:28:14;0.20;;;0.20;;
19551;SDS011;9921;47.186;9.778;2022-10-16T10:31:02;0.10;;;0.10;;
19551;SDS011;9921;47.186;9.778;2022-10-16T10:33:35;0.10;;;0.10;;
19551;SDS011;9921;47.186;9.778;2022-10-16T10:36:12;0.20;;;0.20;;
19551;SDS011;9921;47.186;9.778;2022-10-16T10:38:47;0.17;;;0.17;;
19551;SDS011;9921;47.186;9.778;2022-10-16T10:44:25;0.20;;;0.20;;
19551;SDS011;9921;47.186;9.778;2022-10-16T10:47:05;0.20;;;0.20;;
19551;SDS011;9921;47.186;9.778;2022-10-16T10:49:45;0.20;;;0.20;;
19551;SDS011;9921;47.186;9.778;2022-10-16T10:52:32;0.20;;;0.20;;
19551;SDS011;9921;47.186;9.778;2022-10-16T10:55:13;0.20;;;0.20;;
19551;SDS011;9921;47.186;9.778;2022-10-16T10:57:51;0.20;;;0.20;;
19551;SDS011;9921;47.186;9.778;2022-10-16T11:00:30;0.20;;;0.20;;
19551;SDS011;9921;47.186;9.778;2022-10-16T11:03:09;0.20;;;0.20;;
19551;SDS011;9921;47.186;9.778;2022-10-16T11:05:48;0.20;;;0.20;;
19551;SDS011;9921;47.186;9.778;2022-10-16T11:08:20;0.20;;;0.20;;
19551;SDS011;9921;47.186;9.778;2022-10-16T11:10:53;0.20;;;0.20;;
19551;SDS011;9921;47.186;9.778;2022-10-16T11:13:28;0.20;;;0.20;;
19551;SDS011;9921;47.186;9.778;2022-10-16T11:15:59;0.20;;;0.20;;
19551;SDS011;9921;47.186;9.778;2022-10-16T11:18:30;0.20;;;0.20;;
19551;SDS011;9921;47.186;9.778;2022-10-16T11:21:07;0.20;;;0.20;;
19551;SDS011;9921;47.186;9.778;2022-10-16T11:23:40;0.20;;;0.20;;
19551;SDS011;9921;47.186;9.778;2022-10-16T11:26:14;0.20;;;0.20;;
19551;SDS011;9921;47.186;9.778;2022-10-16T11:28:47;0.13;;;0.13;;
19551;SDS011;9921;47.186;9.778;2022-10-16T11:31:16;0.20;;;0.20;;
19551;SDS011;9921;47.186;9.778;2022-10-16T11:33:49;0.20;;;0.20;;
19551;SDS011;9921;47.186;9.778;2022-10-16T11:36:22;0.20;;;0.20;;
19551;SDS011;9921;47.186;9.778;2022-10-16T11:38:55;0.20;;;0.20;;
19551;SDS011;9921;47.186;9.778;2022-10-16T11:41:29;0.20;;;0.20;;
19551;SDS011;9921;47.186;9.778;2022-10-16T11:44:06;0.20;;;0.20;;
19551;SDS011;9921;47.186;9.778;2022-10-16T11:46:43;0.10;;;0.10;;
19551;SDS011;9921;47.186;9.778;2022-10-16T11:49:18;0.20;;;0.20;;
19551;SDS011;9921;47.186;9.778;2022-10-16T11:51:48;0.20;;;0.20;;
19551;SDS011;9921;47.186;9.778;2022-10-16T11:54:29;0.20;;;0.20;;
19551;SDS011;9921;47.186;9.778;2022-10-16T11:57:02;0.28;;;0.28;;
19551;SDS011;9921;47.186;9.778;2022-10-16T11:59:38;0.20;;;0.20;;
19551;SDS011;9921;47.186;9.778;2022-10-16T12:02:18;0.20;;;0.20;;
19551;SDS011;9921;47.186;9.778;2022-10-16T12:04:58;0.22;;;0.22;;
19551;SDS011;9921;47.186;9.778;2022-10-16T12:07:36;0.20;;;0.20;;
19551;SDS011;9921;47.186;9.778;2022-10-16T12:10:17;0.20;;;0.20;;
19551;SDS011;9921;47.186;9.778;2022-10-16T12:12:47;0.30;;;0.30;;
19551;SDS011;9921;47.186;9.778;2022-10-16T12:15:19;0.28;;;0.28;;
19551;SDS011;9921;47.186;9.778;2022-10-16T12:17:48;0.20;;;0.20;;
19551;SDS011;9921;47.186;9.778;2022-10-16T12:20:21;0.20;;;0.20;;
19551;SDS011;9921;47.186;9.778;2022-10-16T12:22:51;0.20;;;0.20;;
19551;SDS011;9921;47.186;9.778;2022-10-16T12:25:23;0.20;;;0.20;;
19551;SDS011;9921;47.186;9.778;2022-10-16T12:27:53;0.20;;;0.20;;
19551;SDS011;9921;47.186;9.778;2022-10-16T12:30:22;0.20;;;0.20;;
19551;SDS011;9921;47.186;9.778;2022-10-16T12:32:55;0.20;;;0.20;;
19551;SDS011;9921;47.186;9.778;2022-10-16T12:35:24;0.20;;;0.20;;
19551;SDS011;9921;47.186;9.778;2022-10-16T12:37:53;0.20;;;0.20;;
19551;SDS011;9921;47.186;9.778;2022-10-16T12:40:32;0.20;;;0.20;;
19551;SDS011;9921;47.186;9.778;2022-10-16T12:43:10;0.20;;;0.20;;
19551;SDS011;9921;47.186;9.778;2022-10-16T12:45:39;0.20;;;0.20;;
19551;SDS011;9921;47.186;9.778;2022-10-16T12:48:20;0.20;;;0.20;;
19551;SDS011;9921;47.186;9.778;2022-10-16T12:50:48;0.20;;;0.20;;
19551;SDS011;9921;47.186;9.778;2022-10-16T12:53:18;0.20;;;0.20;;
19551;SDS011;9921;47.186;9.778;2022-10-16T12:55:50;0.20;;;0.20;;
19551;SDS011;9921;47.186;9.778;2022-10-16T12:58:36;0.20;;;0.20;;
19551;SDS011;9921;47.186;9.778;2022-10-16T13:01:26;0.20;;;0.20;;
19551;SDS011;9921;47.186;9.778;2022-10-16T13:04:08;0.20;;;0.20;;
19551;SDS011;9921;47.186;9.778;2022-10-16T13:06:48;0.20;;;0.20;;
19551;SDS011;9921;47.186;9.778;2022-10-16T13:09:22;0.20;;;0.20;;
19551;SDS011;9921;47.186;9.778;2022-10-16T13:12:10;0.20;;;0.20;;
19551;SDS011;9921;47.186;9.778;2022-10-16T13:14:49;0.10;;;0.10;;
19551;SDS011;9921;47.186;9.778;2022-10-16T13:17:28;0.20;;;0.20;;
19551;SDS011;9921;47.186;9.778;2022-10-16T13:20:04;0.20;;;0.20;;
19551;SDS011;9921;47.186;9.778;2022-10-16T13:22:41;0.20;;;0.20;;
19551;SDS011;9921;47.186;9.778;2022-10-16T13:25:19;0.20;;;0.20;;
19551;SDS011;9921;47.186;9.778;2022-10-16T13:27:53;0.20;;;0.20;;
19551;SDS011;9921;47.186;9.778;2022-10-16T13:30:23;0.20;;;0.20;;
19551;SDS011;9921;47.186;9.778;2022-10-16T13:32:54;0.20;;;0.20;;
19551;SDS011;9921;47.186;9.778;2022-10-16T13:35:26;0.20;;;0.20;;
19551;SDS011;9921;47.186;9.778;2022-10-16T13:38:11;0.20;;;0.20;;
19551;SDS011;9921;47.186;9.778;2022-10-16T13:40:52;0.20;;;0.20;;
19551;SDS011;9921;47.186;9.778;2022-10-16T13:43:23;0.20;;;0.20;;
19551;SDS011;9921;47.186;9.778;2022-10-16T13:45:57;0.20;;;0.20;;
19551;SDS011;9921;47.186;9.778;2022-10-16T13:48:25;0.20;;;0.20;;
19551;SDS011;9921;47.186;9.778;2022-10-16T13:50:59;0.20;;;0.20;;
19551;SDS011;9921;47.186;9.778;2022-10-16T13:53:31;0.20;;;0.20;;
19551;SDS011;9921;47.186;9.778;2022-10-16T13:55:59;0.10;;;0.10;;
19551;SDS011;9921;47.186;9.778;2022-10-16T13:58:29;0.20;;;0.20;;
19551;SDS011;9921;47.186;9.778;2022-10-16T14:00:57;0.20;;;0.20;;
19551;SDS011;9921;47.186;9.778;2022-10-16T14:03:25;0.20;;;0.20;;
19551;SDS011;9921;47.186;9.778;2022-10-16T14:05:54;0.20;;;0.20;;
19551;SDS011;9921;47.186;9.778;2022-10-16T14:08:23;0.10;;;0.10;;
19551;SDS011;9921;47.186;9.778;2022-10-16T14:10:53;0.10;;;0.10;;
19551;SDS011;9921;47.186;9.778;2022-10-16T14:13:24;0.20;;;0.20;;
19551;SDS011;9921;47.186;9.778;2022-10-16T14:15:58;0.10;;;0.10;;
19551;SDS011;9921;47.186;9.778;2022-10-16T14:18:28;0.13;;;0.13;;
19551;SDS011;9921;47.186;9.778;2022-10-16T14:20:55;0.10;;;0.10;;
19551;SDS011;9921;47.186;9.778;2022-10-16T14:23:30;0.20;;;0.20;;
19551;SDS011;9921;47.186;9.778;2022-10-16T14:29:00;0.20;;;0.20;;
19551;SDS011;9921;47.186;9.778;2022-10-16T14:31:31;0.20;;;0.20;;
19551;SDS011;9921;47.186;9.778;2022-10-16T14:34:01;0.20;;;0.20;;
19551;SDS011;9921;47.186;9.778;2022-10-16T14:36:28;0.20;;;0.20;;
19551;SDS011;9921;47.186;9.778;2022-10-16T14:38:57;0.20;;;0.20;;
19551;SDS011;9921;47.186;9.778;2022-10-16T14:41:28;0.20;;;0.20;;
19551;SDS011;9921;47.186;9.778;2022-10-16T14:44:00;0.20;;;0.20;;
19551;SDS011;9921;47.186;9.778;2022-10-16T14:46:30;0.20;;;0.20;;
19551;SDS011;9921;47.186;9.778;2022-10-16T14:49:01;0.20;;;0.20;;
19551;SDS011;9921;47.186;9.778;2022-10-16T14:51:31;0.20;;;0.20;;
19551;SDS011;9921;47.186;9.778;2022-10-16T14:53:57;0.13;;;0.13;;
19551;SDS011;9921;47.186;9.778;2022-10-16T14:56:25;0.20;;;0.20;;
19551;SDS011;9921;47.186;9.778;2022-10-16T14:58:56;0.20;;;0.20;;
19551;SDS011;9921;47.186;9.778;2022-10-16T15:01:25;0.10;;;0.10;;
19551;SDS011;9921;47.186;9.778;2022-10-16T15:03:52;0.20;;;0.20;;
19551;SDS011;9921;47.186;9.778;2022-10-16T15:06:19;0.30;;;0.30;;
19551;SDS011;9921;47.186;9.778;2022-10-16T15:08:47;0.20;;;0.20;;
19551;SDS011;9921;47.186;9.778;2022-10-16T15:11:15;0.10;;;0.10;;
19551;SDS011;9921;47.186;9.778;2022-10-16T15:13:43;0.10;;;0.10;;
19551;SDS011;9921;47.186;9.778;2022-10-16T15:16:12;0.10;;;0.10;;
19551;SDS011;9921;47.186;9.778;2022-10-16T15:18:41;0.13;;;0.13;;
19551;SDS011;9921;47.186;9.778;2022-10-16T15:21:08;0.15;;;0.15;;
19551;SDS011;9921;47.186;9.778;2022-10-16T15:23:36;0.15;;;0.15;;
19551;SDS011;9921;47.186;9.778;2022-10-16T15:26:03;0.10;;;0.10;;
19551;SDS011;9921;47.186;9.778;2022-10-16T15:28:31;0.20;;;0.20;;
19551;SDS011;9921;47.186;9.778;2022-10-16T15:30:57;0.10;;;0.10;;
19551;SDS011;9921;47.186;9.778;2022-10-16T15:33:26;0.13;;;0.13;;